Time;durP1;ratioP1;P1;durP2;ratioP2;P2;SDS_P1;SDS_P2;PMS_P1;PMS_P2;Temp;Humidity;BMP_temperature;BMP_pressure;BME280_temperature;BME280_humidity;BME280_pressure;Samples;Min_cycle;Max_cycle;Signal;HPM_P1;HPM_P2
2022/06/28 00:00:36;;;;;;;9.88;2.20;;;;;;;;;;4975894;28;20033;-62
2022/06/28 00:03:02;;;;;;;6.00;2.42;;;;;;;;;;4991572;28;20038;-62
2022/06/28 00:05:28;;;;;;;5.85;2.88;;;;;;;;;;4980073;28;20052;-62
2022/06/28 00:07:54;;;;;;;4.32;1.70;;;;;;;;;;4987201;28;20390;-62
2022/06/28 00:10:20;;;;;;;10.70;2.67;;;;;;;;;;4986847;28;20089;-62
2022/06/28 00:12:47;;;;;;;10.32;2.53;;;;;;;;;;4979802;28;20398;-62
2022/06/28 00:17:59;;;;;;;8.55;2.47;;;;;;;;;;4983650;28;20384;-62
2022/06/28 00:20:26;;;;;;;10.85;2.50;;;;;;;;;;4983160;28;20023;-62
2022/06/28 00:22:52;;;;;;;5.00;2.20;;;;;;;;;;4990724;28;20062;-62
2022/06/28 00:25:18;;;;;;;6.47;2.10;;;;;;;;;;4983352;28;20449;-62
2022/06/28 00:27:44;;;;;;;10.32;1.77;;;;;;;;;;4981329;28;20026;-62
2022/06/28 00:30:13;;;;;;;10.63;2.47;;;;;;;;;;4982844;28;20055;-62
2022/06/28 00:32:39;;;;;;;12.25;2.67;;;;;;;;;;4988707;28;20494;-62
2022/06/28 00:35:06;;;;;;;7.25;2.10;;;;;;;;;;4978190;28;20049;-62
2022/06/28 00:37:32;;;;;;;9.95;2.53;;;;;;;;;;4988757;28;20030;-62
2022/06/28 00:39:58;;;;;;;11.60;2.35;;;;;;;;;;4981411;28;20033;-62
2022/06/28 00:42:25;;;;;;;10.85;2.53;;;;;;;;;;4983182;28;20023;-62
2022/06/28 00:44:51;;;;;;;8.88;2.50;;;;;;;;;;4989798;28;20036;-62
2022/06/28 00:47:18;;;;;;;11.48;2.08;;;;;;;;;;4977746;28;20455;-62
2022/06/28 00:49:44;;;;;;;6.97;3.03;;;;;;;;;;4987280;28;20483;-62
2022/06/28 00:52:12;;;;;;;7.30;2.20;;;;;;;;;;4983264;28;20406;-62
2022/06/28 00:54:38;;;;;;;6.93;1.83;;;;;;;;;;4992027;28;20466;-62
2022/06/28 00:57:05;;;;;;;7.63;1.80;;;;;;;;;;4977835;28;20043;-62
2022/06/28 00:59:31;;;;;;;8.35;2.38;;;;;;;;;;4988802;28;20015;-62
2022/06/28 01:01:58;;;;;;;8.85;3.05;;;;;;;;;;4980193;28;20030;-62
2022/06/28 01:04:25;;;;;;;6.05;2.00;;;;;;;;;;4982998;28;20031;-62
2022/06/28 01:06:52;;;;;;;8.23;1.80;;;;;;;;;;4987567;28;20038;-62
2022/06/28 01:09:18;;;;;;;5.32;1.70;;;;;;;;;;4975931;28;20431;-61
2022/06/28 01:11:44;;;;;;;8.52;2.17;;;;;;;;;;4987316;28;20049;-62
2022/06/28 01:14:10;;;;;;;7.65;2.00;;;;;;;;;;4983118;28;20041;-62
2022/06/28 01:16:59;;;;;;;2.85;1.27;;;;;;;;;;4972665;28;20506;-62
2022/06/28 01:19:39;;;;;;;8.07;1.90;;;;;;;;;;4992209;28;20027;-62
2022/06/28 01:22:18;;;;;;;4.38;1.40;;;;;;;;;;4982782;28;20034;-62
2022/06/28 01:24:45;;;;;;;10.45;1.90;;;;;;;;;;4986134;28;20031;-62
2022/06/28 01:27:16;;;;;;;6.80;1.60;;;;;;;;;;4975872;28;20044;-62
2022/06/28 01:29:42;;;;;;;7.25;1.70;;;;;;;;;;4987317;28;20415;-62
2022/06/28 01:32:27;;;;;;;9.30;1.48;;;;;;;;;;4985779;28;20038;-62
2022/06/28 01:34:53;;;;;;;3.83;1.45;;;;;;;;;;4978083;28;20085;-62
2022/06/28 01:37:26;;;;;;;;;;;;;;;;;;4988869;28;20073;-62
2022/06/28 01:39:53;;;;;;;5.63;1.58;;;;;;;;;;4978616;28;19917;-62
2022/06/28 01:42:19;;;;;;;10.50;2.03;;;;;;;;;;4982383;28;20027;-62
2022/06/28 01:44:45;;;;;;;5.43;1.63;;;;;;;;;;4985674;28;20061;-62
2022/06/28 01:47:35;;;;;;;5.93;1.77;;;;;;;;;;4988200;28;20113;-62
2022/06/28 01:50:20;;;;;;;7.28;1.45;;;;;;;;;;4975144;28;20044;-61
2022/06/28 01:52:48;;;;;;;4.50;1.45;;;;;;;;;;4983362;28;20111;-62
2022/06/28 01:55:37;;;;;;;4.63;1.73;;;;;;;;;;4986857;28;20042;-62
2022/06/28 01:58:08;;;;;;;6.32;1.63;;;;;;;;;;4978209;28;20125;-62
2022/06/28 02:00:39;;;;;;;9.38;1.67;;;;;;;;;;4972158;28;20023;-62
2022/06/28 02:03:06;;;;;;;4.32;1.20;;;;;;;;;;4980091;28;20027;-62
2022/06/28 02:05:33;;;;;;;10.35;1.60;;;;;;;;;;4986047;28;20101;-62
2022/06/28 02:08:00;;;;;;;5.22;1.73;;;;;;;;;;4979908;28;20034;-62
2022/06/28 02:10:35;;;;;;;5.75;1.50;;;;;;;;;;4983065;28;20037;-62
2022/06/28 02:13:01;;;;;;;8.80;1.65;;;;;;;;;;4983091;28;20026;-62
2022/06/28 02:15:28;;;;;;;4.93;1.90;;;;;;;;;;4977863;28;20451;-62
2022/06/28 02:17:59;;;;;;;7.32;1.65;;;;;;;;;;4979698;28;20070;-62
2022/06/28 02:20:25;;;;;;;6.20;1.58;;;;;;;;;;4979617;28;20034;-62
2022/06/28 02:22:52;;;;;;;3.30;1.30;;;;;;;;;;4981116;28;20505;-62
2022/06/28 02:25:18;;;;;;;3.45;1.52;;;;;;;;;;4982527;28;20037;-62
2022/06/28 02:27:47;;;;;;;8.63;2.10;;;;;;;;;;4979671;28;20086;-62
2022/06/28 02:30:13;;;;;;;10.70;1.80;;;;;;;;;;4987099;28;20065;-62
2022/06/28 02:32:40;;;;;;;5.03;1.50;;;;;;;;;;4976168;28;20077;-62
2022/06/28 02:40:37;;;;;;;3.10;1.52;;;;;;;;;;4967872;28;20150;-62
2022/06/28 02:43:04;;;;;;;7.18;1.65;;;;;;;;;;4941685;28;20030;-62
2022/06/28 02:45:30;;;;;;;8.13;1.92;;;;;;;;;;4961115;28;20148;-62
2022/06/28 02:47:57;;;;;;;7.00;1.85;;;;;;;;;;4948566;28;20038;-62
2022/06/28 02:50:24;;;;;;;4.35;1.98;;;;;;;;;;4951501;28;20493;-62
2022/06/28 02:52:51;;;;;;;6.07;1.33;;;;;;;;;;4954457;28;20034;-61
2022/06/28 02:55:17;;;;;;;5.22;1.48;;;;;;;;;;4951481;29;20039;-61
2022/06/28 02:57:44;;;;;;;4.45;1.50;;;;;;;;;;4943476;29;20028;-61
2022/06/28 03:00:13;;;;;;;6.63;1.40;;;;;;;;;;4966306;28;20046;-61
2022/06/28 03:02:40;;;;;;;7.60;1.67;;;;;;;;;;4954407;28;20046;-62
2022/06/28 03:05:09;;;;;;;11.52;2.05;;;;;;;;;;4951069;29;20063;-62
2022/06/28 03:07:36;;;;;;;4.85;1.52;;;;;;;;;;4942122;29;20035;-62
2022/06/28 03:10:02;;;;;;;6.53;1.40;;;;;;;;;;4945645;29;20397;-62
2022/06/28 03:12:28;;;;;;;2.60;1.35;;;;;;;;;;4949692;28;20145;-62
2022/06/28 03:14:55;;;;;;;3.95;1.58;;;;;;;;;;4961567;28;20027;-62
2022/06/28 03:17:23;;;;;;;7.28;2.17;;;;;;;;;;4982420;28;20043;-62
2022/06/28 03:19:49;;;;;;;5.97;1.35;;;;;;;;;;4982940;28;20390;-62
2022/06/28 03:22:15;;;;;;;4.57;1.55;;;;;;;;;;4990300;28;20023;-62
2022/06/28 03:24:42;;;;;;;4.90;1.38;;;;;;;;;;4977857;28;20157;-62
2022/06/28 03:27:08;;;;;;;5.75;1.77;;;;;;;;;;4988897;28;20023;-62
2022/06/28 03:29:35;;;;;;;6.30;1.38;;;;;;;;;;4984093;28;20069;-62
2022/06/28 03:32:05;;;;;;;8.45;1.88;;;;;;;;;;4981135;28;20113;-62
2022/06/28 03:34:31;;;;;;;2.10;1.40;;;;;;;;;;4990615;28;20034;-62
2022/06/28 03:36:58;;;;;;;6.60;1.40;;;;;;;;;;4979578;28;20030;-62
2022/06/28 03:39:34;;;;;;;8.43;1.40;;;;;;;;;;4985169;28;20502;-62
2022/06/28 03:42:00;;;;;;;5.95;1.65;;;;;;;;;;4987736;28;20045;-62
2022/06/28 03:44:28;;;;;;;8.65;1.95;;;;;;;;;;4960962;28;20027;-62
2022/06/28 03:46:55;;;;;;;5.30;1.30;;;;;;;;;;4997650;28;20027;-62
2022/06/28 03:49:40;;;;;;;6.90;1.70;;;;;;;;;;4975581;28;20403;-62
2022/06/28 03:52:29;;;;;;;3.72;1.50;;;;;;;;;;4969794;28;20101;-62
2022/06/28 03:55:18;;;;;;;4.72;1.40;;;;;;;;;;4953845;29;20035;-62
2022/06/28 03:57:46;;;;;;;5.97;1.10;;;;;;;;;;4937564;28;20399;-62
2022/06/28 04:00:14;;;;;;;6.60;1.35;;;;;;;;;;4934972;29;20423;-62
2022/06/28 04:02:42;;;;;;;6.15;1.48;;;;;;;;;;4931688;28;20027;-62
2022/06/28 04:05:15;;;;;;;8.52;1.27;;;;;;;;;;4944112;29;20106;-62
2022/06/28 04:07:43;;;;;;;9.65;1.80;;;;;;;;;;4948461;28;20415;-62
2022/06/28 04:10:09;;;;;;;6.25;2.00;;;;;;;;;;4948812;28;20086;-62
2022/06/28 04:12:37;;;;;;;4.20;1.20;;;;;;;;;;4937461;29;20067;-61
2022/06/28 04:15:17;;;;;;;5.75;1.50;;;;;;;;;;4946363;29;20075;-62
2022/06/28 04:17:44;;;;;;;3.28;1.25;;;;;;;;;;4935430;29;20114;-62
2022/06/28 04:20:31;;;;;;;6.63;1.67;;;;;;;;;;4942316;29;20032;-62
2022/06/28 04:23:02;;;;;;;6.38;1.70;;;;;;;;;;4938083;29;20512;-62
2022/06/28 04:25:29;;;;;;;4.75;1.83;;;;;;;;;;4937496;29;20035;-62
2022/06/28 04:27:59;;;;;;;4.03;1.33;;;;;;;;;;4933063;29;20024;-61
2022/06/28 04:30:27;;;;;;;2.78;1.30;;;;;;;;;;4933155;29;20039;-62
2022/06/28 04:32:58;;;;;;;7.15;2.45;;;;;;;;;;4979369;28;20034;-62
2022/06/28 04:35:29;;;;;;;5.93;1.50;;;;;;;;;;4986565;28;20407;-62
2022/06/28 04:37:56;;;;;;;4.72;1.20;;;;;;;;;;4993418;28;20478;-62
2022/06/28 04:40:51;;;;;;;3.75;1.63;;;;;;;;;;4991548;28;20463;-62
2022/06/28 04:43:33;;;;;;;6.22;1.20;;;;;;;;;;4997891;28;20018;-62
2022/06/28 04:45:59;;;;;;;4.57;1.08;;;;;;;;;;4991732;28;20049;-62
2022/06/28 04:48:28;;;;;;;2.60;1.40;;;;;;;;;;4977577;28;20088;-62
2022/06/28 04:50:55;;;;;;;3.80;1.58;;;;;;;;;;4974954;28;20062;-62
2022/06/28 04:53:21;;;;;;;7.55;1.45;;;;;;;;;;4988519;28;20026;-62
2022/06/28 04:55:52;;;;;;;6.22;1.40;;;;;;;;;;4973476;28;20034;-62
2022/06/28 04:58:18;;;;;;;7.75;1.70;;;;;;;;;;4981579;28;20045;-62
2022/06/28 05:00:44;;;;;;;9.45;1.23;;;;;;;;;;4972966;28;20025;-61
2022/06/28 05:03:16;;;;;;;15.25;4.50;;;;;;;;;;4980993;28;20029;-62
2022/06/28 05:05:51;;;;;;;10.20;1.42;;;;;;;;;;4990185;28;20189;-62
2022/06/28 05:08:18;;;;;;;5.05;1.58;;;;;;;;;;4983114;28;20113;-62
2022/06/28 05:10:55;;;;;;;7.88;1.70;;;;;;;;;;4987493;28;20034;-62
2022/06/28 05:13:44;;;;;;;8.25;1.75;;;;;;;;;;4973275;28;20031;-62
2022/06/28 05:16:13;;;;;;;6.35;1.50;;;;;;;;;;4985241;28;20526;-62
2022/06/28 05:18:39;;;;;;;6.32;1.27;;;;;;;;;;4977533;28;20034;-62
2022/06/28 05:21:09;;;;;;;9.52;1.90;;;;;;;;;;4979259;28;20053;-62
2022/06/28 05:23:38;;;;;;;10.45;1.80;;;;;;;;;;4972942;28;20037;-62
2022/06/28 05:26:33;;;;;;;7.93;2.20;;;;;;;;;;4979195;28;20018;-62
2022/06/28 05:29:11;;;;;;;7.55;1.67;;;;;;;;;;4985624;28;20019;-62
2022/06/28 05:31:37;;;;;;;8.57;2.15;;;;;;;;;;4976819;28;20043;-62
2022/06/28 05:34:03;;;;;;;11.48;1.58;;;;;;;;;;4975988;28;20034;-62
2022/06/28 05:36:29;;;;;;;10.38;2.50;;;;;;;;;;4987863;28;20045;-62
2022/06/28 05:38:56;;;;;;;7.20;2.42;;;;;;;;;;4973467;28;20022;-62
2022/06/28 05:41:22;;;;;;;8.48;1.83;;;;;;;;;;4978397;28;20042;-62
2022/06/28 05:43:48;;;;;;;8.85;1.85;;;;;;;;;;4978593;28;20023;-61
2022/06/28 05:46:14;;;;;;;9.73;2.38;;;;;;;;;;4985011;28;20027;-62
2022/06/28 05:48:40;;;;;;;11.05;1.95;;;;;;;;;;4979639;28;20022;-61
2022/06/28 05:51:06;;;;;;;8.77;2.08;;;;;;;;;;4983711;28;20439;-62
2022/06/28 05:53:32;;;;;;;7.05;1.40;;;;;;;;;;4986218;28;20025;-61
2022/06/28 05:55:59;;;;;;;10.77;2.10;;;;;;;;;;4979676;28;20549;-62
2022/06/28 05:58:26;;;;;;;9.20;2.63;;;;;;;;;;4981369;28;20075;-72
2022/06/28 06:00:52;;;;;;;8.65;2.25;;;;;;;;;;4982408;28;20414;-61
2022/06/28 06:03:18;;;;;;;14.32;3.17;;;;;;;;;;4983390;28;20490;-61
2022/06/28 06:05:44;;;;;;;6.28;1.95;;;;;;;;;;4986837;28;20505;-62
2022/06/28 06:08:11;;;;;;;7.10;1.73;;;;;;;;;;4982931;28;20081;-62
2022/06/28 06:10:38;;;;;;;18.08;2.35;;;;;;;;;;4983939;28;20026;-62
2022/06/28 06:13:05;;;;;;;6.28;1.65;;;;;;;;;;4981640;28;20037;-62
2022/06/28 06:15:31;;;;;;;10.40;2.40;;;;;;;;;;4979387;28;20092;-62
2022/06/28 06:17:58;;;;;;;8.88;1.75;;;;;;;;;;4981541;28;20487;-62
2022/06/28 06:20:26;;;;;;;16.48;2.05;;;;;;;;;;4991069;28;20077;-62
2022/06/28 06:22:52;;;;;;;13.90;2.08;;;;;;;;;;4989196;28;20387;-62
2022/06/28 06:25:50;;;;;;;10.50;2.20;;;;;;;;;;4965428;28;20034;-62
2022/06/28 06:28:17;;;;;;;7.95;1.90;;;;;;;;;;4987398;28;20062;-62
2022/06/28 06:30:43;;;;;;;8.38;2.25;;;;;;;;;;4991099;28;20510;-62
2022/06/28 06:33:15;;;;;;;8.23;2.15;;;;;;;;;;4990975;28;20041;-62
2022/06/28 06:35:59;;;;;;;8.30;2.22;;;;;;;;;;4991105;28;20037;-62
2022/06/28 06:38:25;;;;;;;8.13;2.30;;;;;;;;;;4990730;28;20532;-62
2022/06/28 06:40:54;;;;;;;10.77;2.65;;;;;;;;;;4990737;28;20031;-62
2022/06/28 06:43:22;;;;;;;9.40;1.80;;;;;;;;;;4990351;28;20402;-62
2022/06/28 06:45:54;;;;;;;8.05;1.67;;;;;;;;;;4990713;28;20491;-62
2022/06/28 06:48:21;;;;;;;8.52;1.67;;;;;;;;;;4990761;28;20030;-62
2022/06/28 06:50:47;;;;;;;10.88;1.70;;;;;;;;;;4991927;28;20034;-62
2022/06/28 06:53:13;;;;;;;11.80;2.15;;;;;;;;;;4996025;28;20435;-62
2022/06/28 06:55:41;;;;;;;11.30;1.88;;;;;;;;;;4994828;28;20022;-61
2022/06/28 06:58:08;;;;;;;8.82;2.72;;;;;;;;;;4994371;28;20081;-61
2022/06/28 07:00:34;;;;;;;5.57;1.55;;;;;;;;;;4993283;28;20165;-61
2022/06/28 07:03:02;;;;;;;6.90;1.80;;;;;;;;;;4984217;28;20392;-61
2022/06/28 07:05:30;;;;;;;11.50;1.67;;;;;;;;;;4979141;28;20045;-61
2022/06/28 07:07:56;;;;;;;11.38;2.38;;;;;;;;;;4982344;28;20037;-61
2022/06/28 07:10:30;;;;;;;12.82;2.47;;;;;;;;;;4985658;28;20148;-61
2022/06/28 07:12:57;;;;;;;8.18;2.10;;;;;;;;;;4990141;28;20030;-61
2022/06/28 07:15:23;;;;;;;15.00;2.00;;;;;;;;;;4989713;28;20034;-61
2022/06/28 07:17:49;;;;;;;9.70;1.92;;;;;;;;;;4985464;28;20038;-61
2022/06/28 07:20:17;;;;;;;5.93;1.48;;;;;;;;;;4985570;28;20061;-61
2022/06/28 07:22:44;;;;;;;13.70;2.33;;;;;;;;;;4986152;28;20554;-61
2022/06/28 07:25:14;;;;;;;10.30;2.22;;;;;;;;;;4989677;28;20109;-61
2022/06/28 07:27:41;;;;;;;10.45;1.63;;;;;;;;;;4985261;28;20041;-61
2022/06/28 07:30:08;;;;;;;11.55;1.70;;;;;;;;;;4991982;28;20524;-61
2022/06/28 07:32:35;;;;;;;7.22;2.00;;;;;;;;;;4995084;28;20042;-61
2022/06/28 07:35:01;;;;;;;9.00;1.58;;;;;;;;;;4996239;28;20084;-61
2022/06/28 07:37:27;;;;;;;6.80;2.08;;;;;;;;;;4992621;28;20038;-61
2022/06/28 07:39:54;;;;;;;3.40;1.30;;;;;;;;;;4994689;28;20474;-61
2022/06/28 07:42:50;;;;;;;11.00;2.08;;;;;;;;;;4986590;28;20118;-61
2022/06/28 07:45:48;;;;;;;5.13;1.30;;;;;;;;;;4980988;28;20043;-61
2022/06/28 07:48:19;;;;;;;9.48;1.52;;;;;;;;;;4991142;28;20049;-61
2022/06/28 07:53:32;;;;;;;6.95;1.73;;;;;;;;;;4987090;28;20054;-61
2022/06/28 07:56:22;;;;;;;9.10;1.77;;;;;;;;;;4986663;28;20113;-61
2022/06/28 07:58:48;;;;;;;9.30;1.38;;;;;;;;;;4994284;28;20053;-61
2022/06/28 08:01:20;;;;;;;6.53;1.75;;;;;;;;;;4994057;28;20026;-61
2022/06/28 08:03:47;;;;;;;10.13;1.88;;;;;;;;;;4993769;28;20536;-61
2022/06/28 08:06:13;;;;;;;8.48;1.30;;;;;;;;;;4991390;28;20068;-61
2022/06/28 08:08:50;;;;;;;7.70;2.17;;;;;;;;;;4982161;28;20042;-62
2022/06/28 08:11:17;;;;;;;12.93;3.65;;;;;;;;;;4976746;28;20030;-61
2022/06/28 08:13:47;;;;;;;6.90;1.30;;;;;;;;;;4987014;28;20172;-61
2022/06/28 08:16:15;;;;;;;6.93;1.35;;;;;;;;;;4976040;28;20411;-61
2022/06/28 08:18:43;;;;;;;8.80;1.40;;;;;;;;;;4986034;28;20039;-61
2022/06/28 08:21:10;;;;;;;8.85;1.48;;;;;;;;;;4982827;28;20023;-61
2022/06/28 08:23:36;;;;;;;5.72;1.65;;;;;;;;;;4998503;28;20033;-61
2022/06/28 08:26:02;;;;;;;6.03;1.27;;;;;;;;;;4980057;28;20478;-62
2022/06/28 08:28:28;;;;;;;9.80;1.25;;;;;;;;;;4974139;28;20487;-62
2022/06/28 08:30:58;;;;;;;10.80;1.23;;;;;;;;;;4981637;28;20105;-62
2022/06/28 08:33:25;;;;;;;10.57;1.55;;;;;;;;;;4978032;28;20033;-62
2022/06/28 08:35:51;;;;;;;8.63;1.38;;;;;;;;;;4980811;28;20034;-61
2022/06/28 08:38:17;;;;;;;8.73;1.30;;;;;;;;;;4982445;28;20030;-62
2022/06/28 08:40:44;;;;;;;5.97;1.17;;;;;;;;;;4984026;28;20030;-61
2022/06/28 08:43:10;;;;;;;12.55;1.52;;;;;;;;;;4985695;28;20121;-61
2022/06/28 08:45:37;;;;;;;10.77;1.75;;;;;;;;;;4988815;28;20486;-62
2022/06/28 08:48:13;;;;;;;6.65;1.25;;;;;;;;;;4986802;28;20385;-61
2022/06/28 08:50:41;;;;;;;9.55;1.52;;;;;;;;;;4981986;28;20030;-61
2022/06/28 08:53:08;;;;;;;9.65;1.58;;;;;;;;;;4986933;28;20027;-61
2022/06/28 08:55:35;;;;;;;6.72;1.55;;;;;;;;;;4984786;28;20148;-61
2022/06/28 08:58:02;;;;;;;7.75;1.48;;;;;;;;;;4982552;28;20109;-61
2022/06/28 09:00:29;;;;;;;7.35;2.00;;;;;;;;;;4992655;28;20023;-61
2022/06/28 09:02:55;;;;;;;7.47;1.30;;;;;;;;;;4993939;28;20371;-61
2022/06/28 09:05:22;;;;;;;10.50;1.17;;;;;;;;;;4993998;28;20038;-61
2022/06/28 09:07:50;;;;;;;4.88;1.83;;;;;;;;;;4986932;28;20081;-61
2022/06/28 09:10:17;;;;;;;4.47;1.17;;;;;;;;;;4988573;28;20026;-62
2022/06/28 09:12:43;;;;;;;10.65;1.17;;;;;;;;;;4986947;28;20077;-61
2022/06/28 09:15:09;;;;;;;7.38;1.33;;;;;;;;;;4980565;28;20120;-62
2022/06/28 09:17:35;;;;;;;8.98;1.60;;;;;;;;;;4982388;28;20023;-61
2022/06/28 09:20:06;;;;;;;8.25;1.33;;;;;;;;;;4986014;28;20593;-61
2022/06/28 09:22:32;;;;;;;10.73;1.67;;;;;;;;;;4987935;28;20501;-61
2022/06/28 09:24:59;;;;;;;7.45;1.50;;;;;;;;;;4993770;28;20019;-62
2022/06/28 09:27:30;;;;;;;16.17;1.50;;;;;;;;;;4986655;28;20117;-61
2022/06/28 09:29:57;;;;;;;5.38;1.02;;;;;;;;;;4992777;28;20517;-62
2022/06/28 09:32:28;;;;;;;9.63;1.38;;;;;;;;;;4992492;28;20030;-62
2022/06/28 09:34:55;;;;;;;11.05;1.42;;;;;;;;;;4992875;28;20049;-61
2022/06/28 09:37:47;;;;;;;6.20;1.27;;;;;;;;;;4977019;28;20077;-62
2022/06/28 09:40:24;;;;;;;6.45;1.35;;;;;;;;;;4989078;28;20034;-62
2022/06/28 09:43:09;;;;;;;4.72;1.20;;;;;;;;;;4978569;28;20510;-62
2022/06/28 09:45:36;;;;;;;14.68;3.10;;;;;;;;;;4980422;28;20046;-61
2022/06/28 09:48:03;;;;;;;7.15;1.55;;;;;;;;;;4987808;28;20034;-61
2022/06/28 09:50:30;;;;;;;4.95;1.15;;;;;;;;;;4985338;28;20023;-61
2022/06/28 09:52:56;;;;;;;7.40;1.33;;;;;;;;;;4987323;28;20030;-61
2022/06/28 09:55:23;;;;;;;7.90;1.85;;;;;;;;;;4980120;28;20030;-61
2022/06/28 09:57:50;;;;;;;6.72;1.23;;;;;;;;;;4990297;28;20023;-61
2022/06/28 10:00:17;;;;;;;9.02;1.80;;;;;;;;;;4985541;28;20475;-62
2022/06/28 10:02:43;;;;;;;8.00;1.20;;;;;;;;;;4990942;28;20102;-61
2022/06/28 10:05:10;;;;;;;6.13;1.40;;;;;;;;;;4990770;28;20022;-62
2022/06/28 10:07:38;;;;;;;6.38;1.60;;;;;;;;;;4988208;28;20306;-61
2022/06/28 10:10:05;;;;;;;9.20;1.55;;;;;;;;;;4993040;28;20026;-62
2022/06/28 10:15:17;;;;;;;3.90;1.17;;;;;;;;;;4984056;28;20034;-62
2022/06/28 10:17:44;;;;;;;3.55;1.10;;;;;;;;;;4986487;28;20077;-61
2022/06/28 10:20:11;;;;;;;8.00;1.67;;;;;;;;;;4975050;28;20058;-62
2022/06/28 10:22:37;;;;;;;7.07;1.27;;;;;;;;;;4987120;28;20018;-62
2022/06/28 10:25:04;;;;;;;5.50;0.77;;;;;;;;;;4989915;28;20022;-62
2022/06/28 10:27:30;;;;;;;9.07;1.70;;;;;;;;;;4980736;28;20033;-62
2022/06/28 10:30:05;;;;;;;5.20;1.20;;;;;;;;;;4991691;28;20064;-62
2022/06/28 10:32:40;;;;;;;7.95;1.55;;;;;;;;;;4985048;28;20030;-61
2022/06/28 10:35:07;;;;;;;5.60;1.70;;;;;;;;;;4975120;28;20100;-61
2022/06/28 10:37:33;;;;;;;4.20;1.10;;;;;;;;;;4982226;28;20038;-61
2022/06/28 10:40:18;;;;;;;9.25;1.13;;;;;;;;;;4980344;28;20033;-61
2022/06/28 10:42:51;;;;;;;3.53;1.00;;;;;;;;;;4978119;28;20078;-61
2022/06/28 10:45:20;;;;;;;7.03;1.13;;;;;;;;;;4974770;28;20113;-61
2022/06/28 10:48:22;;;;;;;4.03;0.90;;;;;;;;;;4980556;28;20027;-61
2022/06/28 10:50:57;;;;;;;10.40;1.63;;;;;;;;;;4964559;28;20031;-61
2022/06/28 10:53:24;;;;;;;6.60;1.50;;;;;;;;;;4968535;28;20043;-61
2022/06/28 10:56:08;;;;;;;6.40;1.58;;;;;;;;;;4966714;28;20035;-61
2022/06/28 10:58:50;;;;;;;7.82;1.25;;;;;;;;;;4963722;28;20046;-61
2022/06/28 11:01:16;;;;;;;7.43;1.30;;;;;;;;;;4949314;28;20039;-61
2022/06/28 11:04:00;;;;;;;20.25;1.77;;;;;;;;;;4964783;28;20042;-61
2022/06/28 11:06:38;;;;;;;4.18;1.30;;;;;;;;;;4958765;28;20042;-61
2022/06/28 11:09:08;;;;;;;8.02;1.40;;;;;;;;;;4957544;28;20037;-61
2022/06/28 11:11:34;;;;;;;6.80;1.60;;;;;;;;;;4943797;28;20109;-61
2022/06/28 11:14:20;;;;;;;6.68;1.65;;;;;;;;;;4960259;28;20072;-61
2022/06/28 11:16:47;;;;;;;6.97;1.30;;;;;;;;;;4969949;28;20125;-61
2022/06/28 11:19:14;;;;;;;8.38;1.30;;;;;;;;;;4964374;28;20533;-61
2022/06/28 11:21:40;;;;;;;6.45;1.02;;;;;;;;;;4966835;28;20054;-61
2022/06/28 11:24:06;;;;;;;3.40;0.98;;;;;;;;;;4968039;28;20475;-61
2022/06/28 11:29:20;;;;;;;7.60;1.75;;;;;;;;;;4976527;28;20023;-61
2022/06/28 11:31:46;;;;;;;5.55;1.15;;;;;;;;;;4981914;28;20026;-61
2022/06/28 11:34:12;;;;;;;9.40;1.52;;;;;;;;;;4980627;28;20089;-61
2022/06/28 11:36:38;;;;;;;7.35;1.45;;;;;;;;;;4983501;28;20026;-61
2022/06/28 11:39:16;;;;;;;4.40;1.50;;;;;;;;;;4982714;28;20034;-61
2022/06/28 11:41:46;;;;;;;4.40;1.17;;;;;;;;;;4979454;28;20027;-62
2022/06/28 11:44:13;;;;;;;4.53;1.15;;;;;;;;;;4975651;28;20053;-61
2022/06/28 11:46:39;;;;;;;4.78;1.00;;;;;;;;;;4982077;28;20109;-61
2022/06/28 11:49:05;;;;;;;3.92;1.10;;;;;;;;;;4982927;28;20037;-61
2022/06/28 11:51:32;;;;;;;5.47;1.08;;;;;;;;;;4986420;28;20026;-61
2022/06/28 11:53:59;;;;;;;5.45;1.35;;;;;;;;;;4983714;28;20018;-61
2022/06/28 11:56:26;;;;;;;10.00;1.58;;;;;;;;;;4987106;28;20088;-61
2022/06/28 11:58:52;;;;;;;6.22;1.58;;;;;;;;;;4992305;28;20038;-61
2022/06/28 12:01:21;;;;;;;6.65;1.25;;;;;;;;;;4992895;28;20026;-61
2022/06/28 12:03:47;;;;;;;9.48;1.40;;;;;;;;;;4980473;28;20031;-61
2022/06/28 12:06:20;;;;;;;5.35;1.30;;;;;;;;;;4983270;28;20035;-61
2022/06/28 12:08:49;;;;;;;6.95;1.05;;;;;;;;;;4972639;28;20051;-61
2022/06/28 12:11:34;;;;;;;6.10;1.33;;;;;;;;;;4984093;28;20023;-61
2022/06/28 12:14:03;;;;;;;7.20;1.00;;;;;;;;;;4979630;28;20034;-62
2022/06/28 12:16:40;;;;;;;5.15;1.30;;;;;;;;;;4987013;28;20030;-61
2022/06/28 12:19:10;;;;;;;7.88;1.17;;;;;;;;;;4988153;28;20038;-61
2022/06/28 12:21:36;;;;;;;8.43;1.23;;;;;;;;;;4985409;28;20073;-61
2022/06/28 12:24:03;;;;;;;7.30;1.10;;;;;;;;;;4979748;28;20112;-61
2022/06/28 12:26:43;;;;;;;5.45;0.98;;;;;;;;;;4983864;28;20036;-61
2022/06/28 12:29:10;;;;;;;8.57;1.30;;;;;;;;;;4984309;28;20019;-61
2022/06/28 12:31:39;;;;;;;4.93;1.23;;;;;;;;;;4982822;28;20064;-61
2022/06/28 12:34:09;;;;;;;8.23;1.10;;;;;;;;;;4978086;28;20105;-61
2022/06/28 12:36:35;;;;;;;9.13;1.35;;;;;;;;;;4979841;28;20074;-61
2022/06/28 12:39:02;;;;;;;7.25;1.48;;;;;;;;;;4985153;28;20093;-62
2022/06/28 12:41:28;;;;;;;5.57;1.30;;;;;;;;;;4982783;28;20066;-61
2022/06/28 12:43:54;;;;;;;5.28;1.33;;;;;;;;;;4982537;28;20085;-61
2022/06/28 12:46:20;;;;;;;5.53;0.90;;;;;;;;;;4979809;28;20168;-61
2022/06/28 12:48:46;;;;;;;7.55;1.35;;;;;;;;;;4991581;28;20037;-61
2022/06/28 12:51:12;;;;;;;5.13;1.13;;;;;;;;;;4984507;28;20077;-61
2022/06/28 12:53:39;;;;;;;6.00;1.40;;;;;;;;;;4981027;28;20130;-61
2022/06/28 12:56:05;;;;;;;11.65;1.27;;;;;;;;;;4983779;28;20450;-61
2022/06/28 12:58:31;;;;;;;5.78;1.23;;;;;;;;;;4983532;28;20117;-62
2022/06/28 13:00:57;;;;;;;3.78;0.70;;;;;;;;;;4976969;28;20487;-62
2022/06/28 13:03:23;;;;;;;5.47;1.20;;;;;;;;;;4987578;28;20451;-61
2022/06/28 13:05:49;;;;;;;4.13;1.13;;;;;;;;;;4982308;28;20110;-61
2022/06/28 13:08:15;;;;;;;6.80;1.55;;;;;;;;;;4980219;28;20040;-61
2022/06/28 13:10:42;;;;;;;6.63;1.40;;;;;;;;;;4980758;28;20034;-61
2022/06/28 13:13:08;;;;;;;5.25;1.42;;;;;;;;;;4982215;28;20065;-61
2022/06/28 13:15:34;;;;;;;3.70;1.17;;;;;;;;;;4982551;28;20058;-61
2022/06/28 13:18:00;;;;;;;4.18;1.13;;;;;;;;;;4980315;28;20035;-62
2022/06/28 13:20:26;;;;;;;11.18;1.15;;;;;;;;;;4978313;28;20170;-61
2022/06/28 13:22:53;;;;;;;9.35;1.13;;;;;;;;;;4986423;28;20065;-61
2022/06/28 13:25:19;;;;;;;3.25;0.82;;;;;;;;;;4987802;28;20069;-61
2022/06/28 13:27:45;;;;;;;10.93;1.40;;;;;;;;;;4974963;28;20065;-61
2022/06/28 13:30:13;;;;;;;5.10;1.00;;;;;;;;;;4979140;28;20078;-61
2022/06/28 13:32:39;;;;;;;5.60;1.42;;;;;;;;;;4985370;28;20050;-61
2022/06/28 13:35:05;;;;;;;7.20;1.27;;;;;;;;;;4981854;28;20031;-61
2022/06/28 13:37:32;;;;;;;8.75;1.33;;;;;;;;;;4989622;28;20038;-62
2022/06/28 13:39:58;;;;;;;3.75;1.50;;;;;;;;;;4982888;28;20026;-61
2022/06/28 13:42:24;;;;;;;6.32;1.08;;;;;;;;;;4986226;28;20030;-61
2022/06/28 13:44:50;;;;;;;9.82;1.35;;;;;;;;;;4988016;28;20423;-61
2022/06/28 13:47:17;;;;;;;7.57;1.10;;;;;;;;;;4985017;28;20062;-61
2022/06/28 13:49:43;;;;;;;9.80;1.63;;;;;;;;;;4981574;28;20037;-61
2022/06/28 13:52:09;;;;;;;4.45;1.35;;;;;;;;;;4988858;28;20050;-61
2022/06/28 13:54:36;;;;;;;4.38;1.00;;;;;;;;;;4978825;28;20026;-61
2022/06/28 13:57:02;;;;;;;4.45;1.23;;;;;;;;;;4976768;28;20089;-61
2022/06/28 13:59:28;;;;;;;3.65;0.85;;;;;;;;;;4982417;28;20058;-61
2022/06/28 14:01:54;;;;;;;8.38;1.00;;;;;;;;;;4977037;28;20039;-62
2022/06/28 14:04:20;;;;;;;4.38;1.20;;;;;;;;;;4974664;28;20065;-62
2022/06/28 14:06:46;;;;;;;6.18;1.10;;;;;;;;;;4972950;28;20026;-61
2022/06/28 14:09:12;;;;;;;3.28;1.02;;;;;;;;;;4976572;28;20487;-62
2022/06/28 14:11:39;;;;;;;3.90;1.27;;;;;;;;;;4977651;28;20499;-61
2022/06/28 14:14:05;;;;;;;5.68;1.10;;;;;;;;;;4972298;28;20118;-62
2022/06/28 14:16:31;;;;;;;3.38;0.90;;;;;;;;;;4978194;28;20023;-61
2022/06/28 14:18:57;;;;;;;6.13;1.08;;;;;;;;;;4981359;28;20379;-61
2022/06/28 14:21:24;;;;;;;7.13;1.40;;;;;;;;;;4975174;28;20026;-61
2022/06/28 14:23:50;;;;;;;3.53;1.00;;;;;;;;;;4981524;28;20096;-61
2022/06/28 14:26:16;;;;;;;6.18;1.10;;;;;;;;;;4976261;28;20058;-61
2022/06/28 14:28:42;;;;;;;6.13;1.13;;;;;;;;;;4980363;28;20027;-61
2022/06/28 14:31:08;;;;;;;8.82;1.75;;;;;;;;;;4974322;28;20046;-61
2022/06/28 14:33:35;;;;;;;8.05;1.55;;;;;;;;;;4978960;28;20022;-61
2022/06/28 14:36:01;;;;;;;3.65;1.02;;;;;;;;;;4977603;28;20038;-62
2022/06/28 14:38:27;;;;;;;5.57;1.17;;;;;;;;;;4971849;28;20074;-61
2022/06/28 14:40:53;;;;;;;10.57;1.52;;;;;;;;;;4972828;28;20021;-62
2022/06/28 14:43:20;;;;;;;8.90;1.92;;;;;;;;;;4971129;28;20019;-61
2022/06/28 14:45:47;;;;;;;4.88;1.23;;;;;;;;;;4977790;28;20027;-61
2022/06/28 14:48:13;;;;;;;4.13;1.33;;;;;;;;;;4974746;28;20085;-61
2022/06/28 14:50:39;;;;;;;8.43;1.63;;;;;;;;;;4986362;28;20157;-61
2022/06/28 14:53:11;;;;;;;4.13;1.48;;;;;;;;;;4980051;28;20034;-61
2022/06/28 14:55:38;;;;;;;5.00;1.50;;;;;;;;;;4973925;28;20041;-61
2022/06/28 14:58:04;;;;;;;3.97;1.40;;;;;;;;;;4977061;28;20038;-62
2022/06/28 15:00:30;;;;;;;6.97;1.30;;;;;;;;;;4975414;28;20030;-61
2022/06/28 15:02:56;;;;;;;9.98;1.25;;;;;;;;;;4978320;28;20027;-61
2022/06/28 15:05:23;;;;;;;10.52;1.60;;;;;;;;;;4976165;28;20042;-61
2022/06/28 15:07:49;;;;;;;6.75;1.30;;;;;;;;;;4979362;28;20023;-61